createdAt,value
2018-01-06T00:00:38.224Z,8.20
2018-01-06T00:03:07.002Z,7.73
2018-01-06T00:05:35.688Z,9.23
2018-01-06T00:08:04.374Z,9.50
2018-01-06T00:10:33.157Z,10.23
2018-01-06T00:13:01.842Z,9.37
2018-01-06T00:15:30.429Z,11.27
2018-01-06T00:17:59.242Z,10.03
2018-01-06T00:20:27.910Z,9.83
2018-01-06T00:22:56.586Z,9.40
2018-01-06T00:25:25.275Z,10.70
2018-01-06T00:27:53.958Z,10.67
2018-01-06T00:30:22.550Z,10.73
2018-01-06T00:32:51.277Z,10.00
2018-01-06T00:35:20.694Z,10.77
2018-01-06T00:37:50.040Z,10.60
2018-01-06T00:40:18.715Z,14.10
2018-01-06T00:42:47.412Z,10.57
2018-01-06T00:45:16.087Z,10.57
2018-01-06T00:47:44.932Z,11.87
2018-01-06T00:50:14.393Z,10.63
2018-01-06T00:52:43.076Z,11.53
2018-01-06T00:55:11.960Z,13.10
2018-01-06T00:57:40.657Z,11.20
2018-01-06T01:00:09.296Z,12.17
2018-01-06T01:02:38.017Z,13.90
2018-01-06T01:05:06.608Z,16.57
2018-01-06T01:07:35.898Z,25.33
2018-01-06T01:10:04.690Z,17.10
2018-01-06T01:12:33.375Z,16.77
2018-01-06T01:15:02.061Z,11.63
2018-01-06T01:17:30.792Z,11.27
2018-01-06T01:20:00.255Z,12.17
2018-01-06T01:22:28.881Z,14.10
2018-01-06T01:24:58.652Z,14.93
2018-01-06T01:27:27.333Z,12.03
2018-01-06T01:29:55.920Z,11.87
2018-01-06T01:32:24.651Z,10.67
2018-01-06T01:34:54.005Z,10.23
2018-01-06T01:37:22.637Z,11.80
2018-01-06T01:39:52.254Z,13.90
2018-01-06T01:42:20.984Z,15.30
2018-01-06T01:44:49.615Z,15.00
2018-01-06T01:47:19.376Z,15.17
2018-01-06T01:49:48.023Z,16.03
2018-01-06T01:52:17.471Z,15.50
2018-01-06T01:54:46.158Z,14.93
2018-01-06T01:57:14.860Z,16.40
2018-01-06T01:59:43.532Z,14.83
2018-01-06T02:02:12.589Z,13.73
2018-01-06T02:04:41.310Z,12.47
2018-01-06T02:07:09.950Z,12.53
2018-01-06T02:09:38.679Z,12.87
2018-01-06T02:12:07.474Z,14.00
2018-01-06T02:14:36.149Z,14.43
2018-01-06T02:17:04.847Z,14.53
2018-01-06T02:19:33.533Z,13.53
2018-01-06T02:22:02.218Z,15.03
2018-01-06T02:24:31.049Z,15.50
2018-01-06T02:27:00.512Z,14.07
2018-01-06T02:29:29.059Z,11.90
2018-01-06T02:31:57.773Z,12.73
2018-01-06T02:34:26.419Z,12.73
2018-01-06T02:36:55.171Z,13.23
2018-01-06T02:39:24.248Z,13.33
2018-01-06T02:41:52.824Z,11.90
2018-01-06T02:44:21.511Z,11.33
2018-01-06T02:46:50.305Z,11.60
2018-01-06T02:49:18.971Z,11.23
2018-01-06T02:51:47.619Z,11.60
2018-01-06T02:54:17.087Z,10.87
2018-01-06T02:56:45.781Z,10.47
2018-01-06T02:59:14.340Z,11.17
2018-01-06T03:01:43.488Z,11.17
2018-01-06T03:04:12.949Z,11.20
2018-01-06T03:06:41.571Z,10.37
2018-01-06T03:09:11.044Z,11.00
2018-01-06T03:11:39.819Z,10.20
2018-01-06T03:14:08.504Z,11.03
2018-01-06T03:16:37.191Z,12.37
2018-01-06T03:19:05.838Z,13.80
2018-01-06T03:21:34.561Z,13.23
2018-01-06T03:24:03.357Z,13.60
2018-01-06T03:26:31.933Z,13.27
2018-01-06T03:29:00.620Z,12.87
2018-01-06T03:31:29.613Z,12.93
2018-01-06T03:33:58.269Z,12.67
2018-01-06T03:36:26.984Z,13.60
2018-01-06T03:38:55.976Z,12.73
2018-01-06T03:41:24.718Z,13.63
2018-01-06T03:43:54.173Z,18.23
2018-01-06T03:46:23.165Z,14.07
2018-01-06T03:48:51.851Z,14.60
2018-01-06T03:51:20.635Z,15.57
2018-01-06T03:53:49.320Z,17.17
2018-01-06T03:56:18.132Z,17.30
2018-01-06T03:58:48.292Z,17.30
2018-01-06T04:01:17.063Z,17.07
2018-01-06T04:03:46.528Z,16.20
2018-01-06T04:06:15.220Z,15.23
2018-01-06T04:08:43.893Z,14.27
2018-01-06T04:11:12.580Z,14.27
2018-01-06T04:13:41.266Z,14.80
2018-01-06T04:16:10.061Z,15.33
2018-01-06T04:18:38.747Z,15.60
2018-01-06T04:21:07.324Z,15.77
2018-01-06T04:23:36.069Z,15.20
2018-01-06T04:26:05.518Z,14.40
2018-01-06T04:28:34.183Z,12.33
2018-01-06T04:31:02.988Z,13.40
2018-01-06T04:33:31.674Z,14.73
2018-01-06T04:36:00.360Z,16.07
2018-01-06T04:38:29.155Z,17.40
2018-01-06T04:40:57.793Z,22.13
2018-01-06T04:43:27.240Z,20.50
2018-01-06T04:45:56.184Z,36.40
2018-01-06T04:48:25.532Z,39.00
2018-01-06T04:50:54.120Z,39.33
2018-01-06T04:53:22.796Z,31.77
2018-01-06T04:55:51.492Z,24.00
2018-01-06T04:58:20.177Z,16.03
2018-01-06T05:00:49.060Z,14.27
2018-01-06T05:03:17.747Z,14.20
2018-01-06T05:05:46.333Z,12.57
2018-01-06T05:08:15.269Z,13.67
2018-01-06T05:10:44.685Z,16.57
2018-01-06T05:13:13.415Z,18.97
2018-01-06T05:15:42.370Z,19.10
2018-01-06T05:18:10.992Z,19.00
2018-01-06T05:20:39.678Z,19.13
2018-01-06T05:23:08.422Z,21.57
2018-01-06T05:25:37.065Z,10.30
2018-01-06T05:28:05.835Z,5.80
2018-01-06T05:30:36.265Z,6.93
2018-01-06T05:33:04.951Z,4.70
2018-01-06T05:35:33.636Z,4.53
2018-01-06T05:38:02.421Z,4.03
2018-01-06T05:40:31.107Z,4.90
2018-01-06T05:42:59.739Z,5.33
2018-01-06T05:45:29.204Z,4.73
2018-01-06T05:47:57.975Z,4.97
2018-01-06T05:50:26.617Z,7.50
2018-01-06T05:52:56.336Z,8.80
2018-01-06T05:55:25.065Z,5.80
2018-01-06T05:57:53.695Z,7.33
2018-01-06T06:00:23.212Z,9.00
2018-01-06T06:02:52.658Z,15.73
2018-01-06T06:05:21.299Z,27.67
2018-01-06T06:07:50.152Z,54.37
2018-01-06T06:10:18.883Z,50.40
2018-01-06T06:12:47.512Z,50.33
2018-01-06T06:15:16.395Z,36.37
2018-01-06T06:17:45.081Z,36.13
2018-01-06T06:20:13.769Z,44.40
2018-01-06T06:22:42.722Z,47.27
2018-01-06T06:25:11.446Z,41.40
2018-01-06T06:27:40.083Z,46.03
2018-01-06T06:30:09.551Z,74.77
2018-01-06T06:32:38.324Z,104.60
2018-01-06T06:35:07.014Z,83.93
2018-01-06T06:37:35.953Z,78.17
2018-01-06T06:40:05.333Z,76.87
2018-01-06T06:42:33.991Z,81.43
2018-01-06T06:45:02.932Z,72.20
2018-01-06T06:47:32.383Z,50.67
2018-01-06T06:50:01.068Z,27.17
2018-01-06T06:52:30.061Z,39.93
2018-01-06T06:54:58.748Z,32.27
2018-01-06T06:57:27.543Z,27.37
2018-01-06T06:59:56.428Z,21.33
2018-01-06T07:02:25.112Z,26.97
2018-01-06T07:04:53.798Z,56.50
2018-01-06T07:07:22.791Z,48.30
2018-01-06T07:09:51.379Z,51.30
2018-01-06T07:12:20.164Z,70.87
2018-01-06T07:14:48.848Z,60.93
2018-01-06T07:17:17.535Z,101.33
2018-01-06T07:19:46.180Z,93.67
2018-01-06T07:22:14.822Z,58.80
2018-01-06T07:24:43.489Z,34.77
2018-01-06T07:27:12.132Z,44.97
2018-01-06T07:29:41.628Z,54.73
2018-01-06T07:32:11.044Z,27.20
2018-01-06T07:34:39.773Z,27.37
2018-01-06T07:37:08.508Z,23.00
2018-01-06T07:39:37.968Z,19.07
2018-01-06T07:42:06.637Z,18.07
2018-01-06T07:44:35.329Z,16.97
2018-01-06T07:47:04.025Z,15.57
2018-01-06T07:49:32.664Z,15.10
2018-01-06T07:52:03.285Z,13.50
2018-01-06T07:54:32.738Z,16.00
2018-01-06T07:57:01.424Z,86.90
2018-01-06T07:59:30.218Z,33.00
2018-01-06T08:01:58.898Z,14.70
2018-01-06T08:04:27.590Z,14.33
2018-01-06T08:06:56.268Z,87.23
2018-01-06T08:09:24.976Z,18.77
2018-01-06T08:11:53.653Z,11.10
2018-01-06T08:14:22.421Z,11.40
2018-01-06T08:16:51.064Z,10.90
2018-01-06T08:19:20.482Z,12.90
2018-01-06T08:21:49.203Z,22.03
2018-01-06T08:24:17.888Z,14.00
2018-01-06T08:26:46.575Z,13.53
2018-01-06T08:29:15.528Z,12.17
2018-01-06T08:31:44.077Z,19.00
2018-01-06T08:34:12.842Z,12.40
2018-01-06T08:36:41.654Z,38.17
2018-01-06T08:39:10.322Z,17.60
2018-01-06T08:41:39.090Z,15.47
2018-01-06T08:44:07.888Z,15.10
2018-01-06T08:46:36.578Z,19.53
2018-01-06T08:49:05.265Z,19.53
2018-01-06T08:51:34.214Z,15.33
2018-01-06T08:54:02.888Z,15.57
2018-01-06T08:56:32.300Z,11.77
2018-01-06T08:59:01.091Z,12.37
2018-01-06T09:01:30.536Z,19.47
2018-01-06T09:03:59.181Z,22.10
2018-01-06T09:06:27.907Z,35.23
2018-01-06T09:08:56.598Z,13.87
2018-01-06T09:11:25.280Z,11.40
2018-01-06T09:13:54.064Z,11.63
2018-01-06T09:16:22.750Z,9.27
2018-01-06T09:18:51.387Z,11.73
2018-01-06T09:21:21.251Z,10.33
2018-01-06T09:23:49.873Z,11.03
2018-01-06T09:26:19.292Z,35.50
2018-01-06T09:28:48.080Z,46.63
2018-01-06T09:31:17.532Z,11.47
2018-01-06T09:33:46.170Z,11.83
2018-01-06T09:36:15.923Z,12.13
2018-01-06T09:38:44.555Z,12.73
2018-01-06T09:41:14.019Z,18.33
2018-01-06T09:43:42.696Z,15.33
2018-01-06T09:46:11.390Z,44.53
2018-01-06T09:48:39.968Z,13.27
2018-01-06T09:51:08.959Z,12.33
2018-01-06T09:53:37.644Z,16.67
2018-01-06T09:56:06.232Z,12.57
2018-01-06T09:58:35.174Z,12.20
2018-01-06T10:01:04.624Z,13.07
2018-01-06T10:03:33.310Z,11.60
2018-01-06T10:06:01.995Z,16.70
2018-01-06T10:08:30.645Z,14.77
2018-01-06T10:10:59.734Z,12.87
2018-01-06T10:13:29.184Z,13.20
2018-01-06T10:15:57.870Z,14.83
2018-01-06T10:18:26.491Z,13.93
2018-01-06T10:20:55.966Z,11.83
2018-01-06T10:23:24.640Z,13.73
2018-01-06T10:25:53.271Z,14.73
2018-01-06T10:28:23.044Z,12.07
2018-01-06T10:30:51.829Z,12.87
2018-01-06T10:33:20.514Z,15.37
2018-01-06T10:35:49.298Z,12.87
2018-01-06T10:38:17.886Z,12.37
2018-01-06T10:40:46.531Z,13.30
2018-01-06T10:43:15.275Z,12.63
2018-01-06T10:45:44.041Z,13.17
2018-01-06T10:48:12.727Z,12.63
2018-01-06T10:50:41.336Z,13.07
2018-01-06T10:53:10.098Z,14.20
2018-01-06T10:55:38.785Z,13.87
2018-01-06T10:58:07.679Z,16.17
2018-01-06T11:03:42.627Z,15.10
2018-01-06T11:06:11.284Z,14.47
2018-01-06T11:08:39.840Z,15.43
2018-01-06T11:11:09.793Z,15.57
2018-01-06T11:13:38.501Z,14.83
2018-01-06T11:16:07.154Z,16.03
2018-01-06T11:18:35.876Z,18.40
2018-01-06T11:21:04.559Z,15.33
2018-01-06T11:23:33.147Z,16.37
2018-01-06T11:26:01.831Z,16.03
2018-01-06T11:28:30.408Z,16.10
2018-01-06T11:30:59.062Z,18.07
2018-01-06T11:33:28.054Z,16.47
2018-01-06T11:35:56.775Z,17.70
2018-01-06T11:38:25.360Z,14.70
2018-01-06T11:40:54.109Z,20.07
2018-01-06T11:43:22.780Z,18.23
2018-01-06T11:45:51.515Z,17.23
2018-01-06T11:48:20.305Z,17.13
2018-01-06T11:50:48.998Z,16.10
2018-01-06T11:53:17.575Z,16.93
2018-01-06T11:55:46.468Z,17.17
2018-01-06T11:58:15.109Z,15.47
2018-01-06T12:00:43.839Z,16.17
2018-01-06T12:03:12.770Z,14.70
2018-01-06T12:05:42.188Z,13.63
2018-01-06T12:10:45.842Z,14.80
2018-01-06T12:13:14.489Z,14.20
2018-01-06T12:15:43.959Z,13.57
2018-01-06T12:18:13.713Z,13.63
2018-01-06T12:20:42.299Z,13.87
2018-01-06T12:23:11.039Z,13.90
2018-01-06T12:32:25.437Z,11.63
2018-01-06T12:34:54.932Z,11.83
2018-01-06T12:37:24.373Z,14.13
2018-01-06T12:39:53.080Z,15.23
2018-01-06T12:42:21.665Z,11.10
2018-01-06T12:44:50.352Z,11.87
2018-01-06T12:47:21.629Z,12.20
2018-01-06T12:49:57.345Z,12.20
2018-01-06T12:52:26.339Z,12.87
2018-01-06T12:54:55.025Z,12.67
2018-01-06T12:57:23.605Z,13.43
2018-01-06T12:59:52.459Z,14.67
2018-01-06T13:02:21.180Z,13.70
2018-01-06T13:04:49.767Z,12.63
2018-01-06T13:07:18.523Z,12.03
2018-01-06T13:09:47.205Z,12.17
2018-01-06T13:12:15.923Z,13.00
2018-01-06T13:14:44.613Z,12.83
2018-01-06T13:17:13.294Z,12.40
2018-01-06T13:19:41.885Z,11.33
2018-01-06T13:22:10.620Z,12.73
2018-01-06T13:24:39.352Z,12.83
2018-01-06T13:27:07.939Z,12.73
2018-01-06T13:29:36.680Z,15.93
2018-01-06T13:32:05.369Z,15.07
2018-01-06T13:34:34.095Z,13.90
2018-01-06T13:37:02.826Z,16.10
2018-01-06T13:39:32.298Z,15.37
2018-01-06T13:42:01.042Z,15.57
2018-01-06T13:44:30.833Z,16.97
2018-01-06T13:47:00.251Z,16.17
2018-01-06T13:49:28.974Z,17.97
2018-01-06T13:51:58.148Z,16.47
2018-01-06T13:54:26.763Z,27.70
2018-01-06T13:56:55.424Z,19.13
2018-01-06T13:59:24.332Z,16.30
2018-01-06T14:01:52.985Z,16.77
2018-01-06T14:04:21.703Z,15.13
2018-01-06T14:06:50.696Z,13.53
2018-01-06T14:09:19.339Z,13.80
2018-01-06T14:11:48.068Z,15.40
2018-01-06T14:14:17.025Z,14.63
2018-01-06T14:16:45.746Z,15.83
2018-01-06T14:19:14.336Z,18.70
2018-01-06T14:21:43.326Z,20.30
2018-01-06T14:24:11.873Z,19.90
2018-01-06T14:26:40.599Z,17.20
2018-01-06T14:29:09.339Z,18.37
2018-01-06T14:31:38.080Z,17.70
2018-01-06T14:34:06.855Z,21.33
2018-01-06T14:36:35.753Z,35.73
2018-01-06T14:39:04.481Z,54.50
2018-01-06T14:41:33.833Z,48.33
2018-01-06T14:44:02.564Z,31.33
2018-01-06T14:46:32.028Z,52.40
2018-01-06T14:49:00.580Z,56.17
2018-01-06T14:51:29.332Z,58.03
2018-01-06T14:53:58.656Z,70.60
2018-01-06T14:56:27.385Z,62.73
2018-01-06T14:58:56.349Z,51.10
2018-01-06T15:01:25.064Z,46.00
2018-01-06T15:03:53.640Z,39.47
2018-01-06T15:06:22.743Z,50.77
2018-01-06T15:08:51.427Z,52.67
2018-01-06T15:11:20.065Z,48.87
2018-01-06T15:13:49.516Z,55.97
2018-01-06T15:16:18.199Z,57.40
2018-01-06T15:18:46.843Z,78.57
2018-01-06T15:21:15.933Z,78.70
2018-01-06T15:23:45.380Z,53.23
2018-01-06T15:26:14.072Z,46.17
2018-01-06T15:28:42.760Z,57.63
2018-01-06T15:31:11.458Z,76.97
2018-01-06T15:33:40.227Z,71.13
2018-01-06T15:36:09.170Z,50.37
2018-01-06T15:38:38.625Z,60.60
2018-01-06T15:41:07.316Z,41.73
2018-01-06T15:50:21.979Z,102.77
2018-01-06T15:52:50.700Z,91.00
2018-01-06T15:55:19.495Z,130.67
2018-01-06T15:57:48.588Z,134.43
2018-01-06T16:00:17.273Z,173.47
2018-01-06T16:02:45.958Z,156.83
2018-01-06T16:05:14.743Z,164.67
2018-01-06T16:07:43.429Z,156.03
2018-01-06T16:10:12.071Z,153.20
2018-01-06T16:12:40.704Z,141.30
2018-01-06T16:15:09.288Z,157.90
2018-01-06T16:17:37.975Z,147.90
2018-01-06T16:20:06.860Z,144.77
2018-01-06T16:22:35.511Z,157.77
2018-01-06T16:25:04.230Z,228.20
2018-01-06T16:27:33.029Z,157.57
2018-01-06T16:30:01.711Z,160.20
2018-01-06T16:32:30.353Z,169.77
2018-01-06T16:34:59.588Z,197.83
2018-01-06T16:37:28.249Z,231.07
2018-01-06T16:39:56.959Z,306.00
2018-01-06T16:42:25.952Z,373.33
2018-01-06T16:44:54.597Z,374.43
2018-01-06T16:47:23.324Z,334.20
2018-01-06T16:49:52.318Z,324.60
2018-01-06T16:52:21.825Z,275.00
2018-01-06T16:54:50.512Z,250.93
2018-01-06T16:57:19.296Z,252.03
2018-01-06T16:59:47.981Z,261.63
2018-01-06T17:02:16.667Z,242.53
2018-01-06T17:04:45.639Z,257.27
2018-01-06T17:07:14.346Z,272.30
2018-01-06T17:09:43.032Z,255.00
2018-01-06T17:12:11.644Z,279.20
2018-01-06T17:14:40.365Z,243.97
2018-01-06T17:17:09.056Z,217.67
2018-01-06T17:19:38.846Z,215.40
2018-01-06T17:22:08.263Z,207.93
2018-01-06T17:24:36.990Z,199.80
2018-01-06T17:27:05.787Z,193.77
2018-01-06T17:29:34.472Z,190.40
2018-01-06T17:32:03.158Z,182.23
2018-01-06T17:34:32.040Z,181.27
2018-01-06T17:37:00.696Z,175.47
2018-01-06T17:39:29.256Z,184.00
2018-01-06T17:41:58.822Z,183.60
2018-01-06T17:44:27.448Z,178.03
2018-01-06T17:46:56.907Z,177.00
2018-01-06T17:49:25.692Z,194.17
2018-01-06T17:51:54.377Z,192.73
2018-01-06T17:54:23.020Z,180.63
2018-01-06T17:56:52.038Z,200.03
2018-01-06T17:59:20.742Z,193.07
2018-01-06T18:01:49.428Z,207.47
2018-01-06T18:04:18.223Z,222.87
2018-01-06T18:06:46.900Z,209.97
2018-01-06T18:09:15.596Z,238.33
2018-01-06T18:11:44.587Z,251.30
2018-01-06T18:14:13.170Z,258.97
2018-01-06T18:16:41.851Z,247.57
2018-01-06T18:19:10.645Z,256.77
2018-01-06T18:21:39.331Z,273.33
2018-01-06T18:24:07.955Z,231.10
2018-01-06T18:26:37.670Z,226.77
2018-01-06T18:29:07.069Z,250.40
2018-01-06T18:31:36.537Z,210.30
2018-01-06T18:34:05.317Z,193.37
2018-01-06T18:36:34.104Z,189.87
2018-01-06T18:39:03.709Z,186.50
2018-01-06T18:41:32.858Z,185.87
2018-01-06T18:44:02.348Z,185.67
2018-01-06T18:46:31.105Z,187.57
2018-01-06T18:48:59.989Z,177.60
2018-01-06T18:51:28.675Z,194.90
2018-01-06T18:53:57.470Z,196.50
2018-01-06T18:56:26.412Z,199.27
2018-01-06T18:58:55.758Z,209.37
2018-01-06T19:01:24.402Z,222.33
2018-01-06T19:03:54.364Z,242.23
2018-01-06T19:06:22.942Z,240.43
2018-01-06T19:08:51.625Z,232.37
2018-01-06T19:11:20.420Z,199.37
2018-01-06T19:13:49.061Z,203.20
2018-01-06T19:16:17.730Z,202.03
2018-01-06T19:18:47.597Z,207.77
2018-01-06T19:21:16.243Z,208.90
2018-01-06T19:23:44.936Z,207.80
2018-01-06T19:26:13.662Z,207.10
2018-01-06T19:28:42.245Z,206.07
2018-01-06T19:31:10.890Z,204.13
2018-01-06T19:33:40.431Z,207.97
2018-01-06T19:36:09.079Z,209.40
2018-01-06T19:38:37.812Z,195.63
2018-01-06T19:41:06.488Z,169.80
2018-01-06T19:43:35.180Z,181.73
2018-01-06T19:46:03.817Z,179.20
2018-01-06T19:48:33.268Z,164.13
2018-01-06T19:51:01.951Z,129.83
2018-01-06T19:53:30.637Z,145.43
2018-01-06T19:55:59.524Z,136.33
2018-01-06T19:58:28.216Z,104.80
2018-01-06T20:00:56.849Z,59.53
2018-01-06T20:03:26.321Z,60.70
2018-01-06T20:05:55.038Z,62.13
2018-01-06T20:08:24.452Z,70.17
2018-01-06T20:10:53.548Z,75.43
2018-01-06T20:13:22.309Z,93.60
2018-01-06T20:15:51.781Z,80.23
2018-01-06T20:18:20.570Z,90.20
2018-01-06T20:20:49.253Z,88.47
2018-01-06T20:23:17.938Z,89.83
2018-01-06T20:25:46.724Z,80.60
2018-01-06T20:28:15.372Z,91.83
2018-01-06T20:30:44.094Z,89.50
2018-01-06T20:33:12.890Z,99.73
2018-01-06T20:35:41.577Z,81.30
2018-01-06T20:38:10.215Z,68.17
2018-01-06T20:40:39.911Z,68.60
2018-01-06T20:43:09.366Z,69.77
2018-01-06T20:45:37.997Z,77.70
2018-01-06T20:48:07.561Z,78.10
2018-01-06T20:50:36.249Z,78.10
2018-01-06T20:53:05.032Z,84.50
2018-01-06T20:55:34.234Z,122.50
2018-01-06T20:58:02.820Z,102.40
2018-01-06T21:00:31.500Z,100.03
2018-01-06T21:03:00.291Z,85.43
2018-01-06T21:05:28.878Z,65.90
2018-01-06T21:07:57.558Z,60.27
2018-01-06T21:10:26.353Z,45.17
2018-01-06T21:12:55.035Z,51.03
2018-01-06T21:15:23.615Z,73.37
2018-01-06T21:17:52.408Z,82.33
2018-01-06T21:20:20.993Z,64.23
2018-01-06T21:22:49.678Z,62.63
2018-01-06T21:25:18.405Z,47.77
2018-01-06T21:27:47.824Z,40.80
2018-01-06T21:30:16.548Z,39.10
2018-01-06T21:32:45.509Z,41.77
2018-01-06T21:35:14.227Z,40.23
2018-01-06T21:37:42.913Z,42.80
2018-01-06T21:40:12.062Z,37.83
2018-01-06T21:42:41.513Z,68.73
2018-01-06T21:45:10.199Z,64.30
2018-01-06T21:47:39.765Z,64.77
2018-01-06T21:50:08.504Z,67.93
2018-01-06T21:52:37.177Z,67.73
2018-01-06T21:55:06.317Z,76.33
2018-01-06T21:57:35.779Z,76.87
2018-01-06T22:00:04.581Z,74.40
2018-01-06T22:02:33.382Z,62.17
2018-01-06T22:05:02.045Z,77.50
2018-01-06T22:07:30.730Z,76.50
2018-01-06T22:09:59.514Z,52.83
2018-01-06T22:12:28.166Z,49.50
2018-01-06T22:14:56.788Z,50.37
2018-01-06T22:17:25.622Z,44.10
2018-01-06T22:19:55.081Z,39.47
2018-01-06T22:22:23.767Z,38.67
2018-01-06T22:24:52.602Z,39.70
2018-01-06T22:27:22.061Z,36.47
2018-01-06T22:29:50.746Z,38.47
2018-01-06T22:32:19.531Z,44.73
2018-01-06T22:34:48.117Z,37.07
2018-01-06T22:37:16.803Z,44.93
2018-01-06T22:39:45.795Z,38.87
2018-01-06T22:42:14.344Z,50.60
2018-01-06T22:44:43.018Z,43.97
2018-01-06T22:47:12.778Z,41.97
2018-01-06T22:49:41.408Z,30.63
2018-01-06T22:52:10.860Z,28.93
2018-01-06T22:54:40.043Z,27.33
2018-01-06T22:57:08.748Z,25.97
2018-01-06T22:59:37.434Z,27.13
2018-01-06T23:02:06.218Z,30.17
2018-01-06T23:04:34.864Z,26.00
2018-01-06T23:07:03.590Z,30.67
2018-01-06T23:09:32.183Z,36.17
2018-01-06T23:12:00.881Z,49.00
2018-01-06T23:14:30.306Z,40.53
2018-01-06T23:17:00.078Z,45.80
2018-01-06T23:19:28.746Z,36.27
2018-01-06T23:21:57.450Z,35.67
2018-01-06T23:24:26.180Z,37.23
2018-01-06T23:26:55.644Z,40.93
2018-01-06T23:29:24.429Z,44.33
2018-01-06T23:31:53.520Z,43.13
2018-01-06T23:34:22.176Z,60.00
2018-01-06T23:36:50.728Z,45.10
2018-01-06T23:39:20.461Z,39.23
2018-01-06T23:41:49.190Z,32.20
2018-01-06T23:44:17.981Z,33.47
2018-01-06T23:46:46.713Z,31.70
2018-01-06T23:49:16.164Z,30.97
2018-01-06T23:51:44.959Z,31.50
2018-01-06T23:54:13.843Z,32.33
2018-01-06T23:56:42.528Z,35.77
2018-01-06T23:59:11.219Z,32.33
